Time;durP1;ratioP1;P1;durP2;ratioP2;P2;SDS_P1;SDS_P2;PMS_P1;PMS_P2;Temp;Humidity;BMP_temperature;BMP_pressure;BME280_temperature;BME280_humidity;BME280_pressure;Samples;Min_cycle;Max_cycle;Signal;HPM_P1;HPM_P2
2023/03/19 00:02:17;;;;;;;3.22;1.40;;;14.50;68.20;;;;;;5099118;28;20032;-62
2023/03/19 00:04:42;;;;;;;5.38;1.42;;;14.50;68.50;;;;;;5096450;28;20035;-62
2023/03/19 00:07:08;;;;;;;2.85;1.30;;;14.40;68.80;;;;;;5101541;28;20036;-62
2023/03/19 00:09:34;;;;;;;2.55;1.10;;;14.40;69.10;;;;;;5095316;28;20024;-62
2023/03/19 00:12:00;;;;;;;3.15;1.27;;;14.30;69.40;;;;;;5094981;28;20122;-62
2023/03/19 00:14:25;;;;;;;2.40;1.30;;;14.30;69.80;;;;;;5096270;28;20110;-62
2023/03/19 00:16:51;;;;;;;3.83;1.60;;;14.30;70.00;;;;;;5075593;28;20318;-62
2023/03/19 00:19:17;;;;;;;3.30;1.23;;;14.30;70.20;;;;;;5094944;28;20024;-62
2023/03/19 00:21:43;;;;;;;4.13;1.38;;;14.30;70.30;;;;;;5091471;28;20028;-62
2023/03/19 00:24:09;;;;;;;4.35;1.30;;;14.30;70.50;;;;;;5102848;28;20356;-62
2023/03/19 00:26:36;;;;;;;2.63;1.27;;;14.20;70.70;;;;;;5099381;28;20066;-62
2023/03/19 00:29:03;;;;;;;4.35;1.60;;;14.20;70.90;;;;;;5095615;28;20028;-62
2023/03/19 00:31:30;;;;;;;5.05;1.85;;;14.20;71.00;;;;;;5099517;28;20024;-62
2023/03/19 00:33:59;;;;;;;5.75;1.55;;;14.10;71.00;;;;;;5086647;28;20127;-62
2023/03/19 00:36:27;;;;;;;4.60;1.63;;;14.10;71.20;;;;;;5104525;28;20098;-61
2023/03/19 00:38:52;;;;;;;5.47;1.90;;;14.10;71.20;;;;;;5081020;28;20024;-62
2023/03/19 00:41:19;;;;;;;3.72;1.73;;;14.10;71.30;;;;;;5105943;28;20036;-61
2023/03/19 00:43:45;;;;;;;2.67;1.42;;;14.10;71.40;;;;;;5087354;28;20036;-62
2023/03/19 00:46:12;;;;;;;3.67;1.60;;;14.10;71.50;;;;;;5095351;28;20031;-61
2023/03/19 00:48:38;;;;;;;4.35;1.63;;;14.10;71.50;;;;;;5100290;28;20470;-61
2023/03/19 00:51:08;;;;;;;3.75;1.63;;;14.10;71.50;;;;;;5095131;28;20027;-62
2023/03/19 00:53:42;;;;;;;3.95;1.70;;;14.10;71.50;;;;;;5094295;28;20043;-62
2023/03/19 00:56:10;;;;;;;5.32;1.60;;;14.10;71.50;;;;;;5085176;28;20024;-62
2023/03/19 00:58:40;;;;;;;4.88;1.80;;;14.10;71.60;;;;;;5095145;28;20082;-61
2023/03/19 01:01:07;;;;;;;2.60;1.48;;;14.10;71.60;;;;;;5102234;28;20032;-61
2023/03/19 01:03:33;;;;;;;3.25;1.50;;;14.00;71.70;;;;;;5095037;28;20024;-61
2023/03/19 01:05:59;;;;;;;3.50;1.60;;;14.00;71.80;;;;;;5093391;28;20085;-61
2023/03/19 01:08:25;;;;;;;4.07;1.65;;;14.00;71.90;;;;;;5089201;28;20159;-61
2023/03/19 01:10:51;;;;;;;2.97;1.52;;;14.00;72.00;;;;;;5094996;28;20027;-62
2023/03/19 01:13:17;;;;;;;3.60;1.55;;;14.00;72.10;;;;;;5093843;28;20099;-61
2023/03/19 01:15:43;;;;;;;3.60;1.52;;;13.90;72.00;;;;;;5105230;28;20021;-61
2023/03/19 01:18:11;;;;;;;4.50;1.45;;;13.90;72.10;;;;;;5094485;28;20109;-62
2023/03/19 01:20:39;;;;;;;5.28;1.77;;;13.90;72.20;;;;;;5093677;28;20370;-61
2023/03/19 01:23:06;;;;;;;3.60;1.50;;;13.90;72.90;;;;;;5097777;28;20036;-61
2023/03/19 01:25:33;;;;;;;4.07;1.52;;;13.90;72.30;;;;;;5093578;28;20357;-62
2023/03/19 01:28:04;;;;;;;3.78;1.52;;;13.90;72.40;;;;;;5095312;28;20023;-62
2023/03/19 01:30:30;;;;;;;2.95;1.38;;;13.90;72.50;;;;;;5094812;28;20077;-62
2023/03/19 01:33:11;;;;;;;3.75;1.60;;;13.90;72.60;;;;;;5096888;28;20318;-62
2023/03/19 01:35:58;;;;;;;3.17;1.30;;;13.90;72.60;;;;;;5093184;28;20431;-62
2023/03/19 01:38:26;;;;;;;2.35;1.30;;;13.80;72.50;;;;;;5089139;28;20031;-62
2023/03/19 01:40:57;;;;;;;3.13;1.40;;;13.80;72.70;;;;;;5094274;28;20019;-62
2023/03/19 01:43:25;;;;;;;5.38;1.80;;;13.80;72.70;;;;;;5091506;28;20039;-62
2023/03/19 01:46:19;;;;;;;2.80;1.50;;;13.80;72.90;;;;;;5091222;28;20077;-62
2023/03/19 01:48:52;;;;;;;4.55;1.60;;;13.80;72.90;;;;;;5097690;28;20042;-62
2023/03/19 01:51:25;;;;;;;2.95;1.40;;;13.70;72.90;;;;;;5092939;28;20032;-62
2023/03/19 01:54:14;;;;;;;3.33;1.58;;;13.70;73.00;;;;;;5082451;28;20067;-62
2023/03/19 01:56:58;;;;;;;3.80;1.60;;;13.70;73.20;;;;;;5091688;28;20028;-62
2023/03/19 01:59:55;;;;;;;3.90;1.52;;;13.60;73.20;;;;;;5094520;28;20066;-62
2023/03/19 02:02:43;;;;;;;3.78;1.60;;;13.70;73.30;;;;;;5093607;28;20036;-62
2023/03/19 02:05:24;;;;;;;5.25;2.28;;;13.70;73.30;;;;;;5092510;28;20361;-62
2023/03/19 02:07:53;;;;;;;3.13;1.58;;;13.70;73.30;;;;;;5096027;28;20034;-62
2023/03/19 02:10:20;;;;;;;3.63;1.85;;;13.70;73.40;;;;;;5093495;28;20120;-61
2023/03/19 02:12:47;;;;;;;4.97;1.85;;;13.70;73.50;;;;;;5094120;28;20356;-63
2023/03/19 02:15:13;;;;;;;3.03;1.50;;;13.60;73.50;;;;;;5094234;28;20040;-62
2023/03/19 02:17:40;;;;;;;3.50;1.58;;;13.60;73.60;;;;;;5096322;28;20115;-62
2023/03/19 02:20:16;;;;;;;5.20;1.98;;;13.60;73.70;;;;;;5093776;28;20035;-62
2023/03/19 02:23:14;;;;;;;5.05;1.98;;;13.60;73.80;;;;;;5093542;28;20044;-62
2023/03/19 02:25:53;;;;;;;4.10;2.05;;;13.60;73.80;;;;;;5106052;28;20024;-62
2023/03/19 02:28:21;;;;;;;5.20;2.10;;;13.60;73.90;;;;;;5089882;28;20024;-62
2023/03/19 02:30:51;;;;;;;5.20;2.03;;;13.60;73.90;;;;;;5094020;28;20189;-62
2023/03/19 02:33:18;;;;;;;5.82;2.22;;;13.60;74.00;;;;;;5094920;28;20120;-61
2023/03/19 02:35:47;;;;;;;4.90;2.15;;;13.60;74.10;;;;;;5094456;28;20028;-61
2023/03/19 02:38:16;;;;;;;6.22;2.17;;;13.60;74.10;;;;;;5088020;28;20021;-61
2023/03/19 02:41:00;;;;;;;6.30;2.58;;;13.60;74.10;;;;;;5093881;28;20540;-61
2023/03/19 02:43:26;;;;;;;5.65;2.20;;;13.60;74.30;;;;;;5096922;28;20035;-62
2023/03/19 02:45:53;;;;;;;5.78;2.22;;;13.60;74.30;;;;;;5093042;28;20028;-61
2023/03/19 02:48:19;;;;;;;5.07;2.10;;;13.60;74.30;;;;;;5092643;28;20126;-61
2023/03/19 02:50:45;;;;;;;6.35;2.42;;;13.60;74.40;;;;;;5086393;28;20099;-61
2023/03/19 02:53:11;;;;;;;5.63;2.20;;;13.60;74.50;;;;;;5099436;28;20432;-61
2023/03/19 02:55:37;;;;;;;5.40;2.35;;;13.60;74.50;;;;;;5094130;28;20028;-61
2023/03/19 02:58:02;;;;;;;5.68;2.20;;;13.60;74.50;;;;;;5092191;28;20456;-61
2023/03/19 03:00:29;;;;;;;6.82;2.53;;;13.60;74.50;;;;;;5093826;28;20028;-61
2023/03/19 03:02:56;;;;;;;5.65;2.28;;;13.60;74.50;;;;;;5099239;28;20032;-61
2023/03/19 03:05:23;;;;;;;5.03;2.30;;;13.60;74.50;;;;;;5093636;28;20065;-61
2023/03/19 03:07:49;;;;;;;5.82;2.67;;;13.60;74.50;;;;;;5101271;28;20032;-61
2023/03/19 03:10:15;;;;;;;5.70;2.03;;;13.70;74.60;;;;;;5093692;28;20089;-61
2023/03/19 03:12:42;;;;;;;5.15;2.15;;;13.70;74.60;;;;;;5098787;28;20489;-62
2023/03/19 03:15:08;;;;;;;6.10;2.55;;;13.60;74.60;;;;;;5092215;28;20038;-62
2023/03/19 03:17:38;;;;;;;4.85;2.15;;;13.70;74.60;;;;;;5093659;28;20035;-62
2023/03/19 03:20:06;;;;;;;7.32;2.60;;;13.60;74.60;;;;;;5088008;28;20115;-62
2023/03/19 03:22:32;;;;;;;6.57;2.65;;;13.70;74.70;;;;;;5089487;28;20083;-62
2023/03/19 03:24:58;;;;;;;6.07;2.42;;;13.70;74.90;;;;;;5094283;28;20055;-62
2023/03/19 03:27:24;;;;;;;6.07;2.50;;;13.60;74.90;;;;;;5095417;28;20024;-62
2023/03/19 03:29:50;;;;;;;5.65;2.50;;;13.60;75.10;;;;;;5096864;28;20119;-62
2023/03/19 03:32:16;;;;;;;5.30;2.17;;;13.60;75.20;;;;;;5090468;28;20120;-62
2023/03/19 03:34:42;;;;;;;5.60;2.33;;;13.60;75.30;;;;;;5092422;28;20039;-62
2023/03/19 03:37:08;;;;;;;5.60;2.70;;;13.60;75.40;;;;;;5092184;28;20043;-62
2023/03/19 03:39:34;;;;;;;5.65;2.65;;;13.60;75.50;;;;;;5085094;28;20040;-62
2023/03/19 03:42:00;;;;;;;6.22;2.50;;;13.60;75.70;;;;;;5084337;28;20024;-62
2023/03/19 03:44:28;;;;;;;6.40;2.58;;;13.50;75.70;;;;;;5079720;28;20025;-61
2023/03/19 03:46:54;;;;;;;6.68;2.63;;;13.50;75.70;;;;;;5097844;28;20016;-62
2023/03/19 03:49:20;;;;;;;6.78;2.97;;;13.50;75.80;;;;;;5077464;28;20498;-62
2023/03/19 03:51:46;;;;;;;6.88;3.00;;;13.50;75.90;;;;;;5078765;28;20028;-62
2023/03/19 03:54:11;;;;;;;7.07;3.08;;;13.50;75.90;;;;;;5087766;28;20037;-62
2023/03/19 03:56:37;;;;;;;6.80;3.25;;;13.50;76.00;;;;;;5080996;28;20359;-62
2023/03/19 03:59:03;;;;;;;5.55;2.63;;;13.50;76.10;;;;;;5082309;28;20032;-62
2023/03/19 04:01:29;;;;;;;7.00;3.10;;;13.50;76.10;;;;;;5093412;28;20348;-62
2023/03/19 04:03:55;;;;;;;7.10;2.83;;;13.50;76.20;;;;;;5075399;28;20433;-62
2023/03/19 04:06:23;;;;;;;7.25;3.17;;;13.50;76.20;;;;;;5092678;28;20025;-62
2023/03/19 04:09:09;;;;;;;7.38;3.30;;;13.50;76.20;;;;;;5084473;28;20027;-62
2023/03/19 04:11:35;;;;;;;6.43;3.03;;;13.50;76.20;;;;;;5080417;28;20017;-62
2023/03/19 04:14:03;;;;;;;6.85;3.20;;;13.50;76.20;;;;;;5075009;28;20036;-62
2023/03/19 04:16:31;;;;;;;6.60;3.30;;;13.40;76.20;;;;;;5080044;28;20028;-62
2023/03/19 04:18:57;;;;;;;7.13;3.08;;;13.50;76.30;;;;;;5075224;28;20453;-62
2023/03/19 04:21:22;;;;;;;6.93;3.97;;;13.50;76.40;;;;;;5080825;28;20047;-62
2023/03/19 04:23:48;;;;;;;8.02;3.60;;;13.50;76.40;;;;;;5093930;28;20093;-62
2023/03/19 04:26:14;;;;;;;9.00;3.50;;;13.40;76.40;;;;;;5061717;28;20036;-62
2023/03/19 04:28:41;;;;;;;7.35;3.20;;;13.40;76.50;;;;;;5082290;28;20020;-62
2023/03/19 04:31:09;;;;;;;7.30;3.45;;;13.40;76.50;;;;;;5080395;28;20111;-62
2023/03/19 04:33:39;;;;;;;7.22;3.70;;;13.40;76.60;;;;;;5077184;28;20107;-62
2023/03/19 04:36:05;;;;;;;7.65;3.50;;;13.40;76.60;;;;;;5080584;28;20033;-62
2023/03/19 04:38:31;;;;;;;7.80;3.55;;;13.40;76.60;;;;;;5077859;28;20472;-62
2023/03/19 04:40:57;;;;;;;8.25;3.90;;;13.30;76.60;;;;;;5091821;28;20054;-62
2023/03/19 04:43:24;;;;;;;7.10;3.67;;;13.30;76.60;;;;;;5078398;28;20016;-62
2023/03/19 04:45:50;;;;;;;7.22;4.10;;;13.30;76.60;;;;;;5083506;28;20020;-61
2023/03/19 04:48:17;;;;;;;7.60;3.90;;;13.30;76.70;;;;;;5078331;28;20016;-62
2023/03/19 04:50:46;;;;;;;7.93;4.38;;;13.30;76.80;;;;;;5079564;28;20055;-62
2023/03/19 04:53:12;;;;;;;7.75;4.45;;;13.20;76.70;;;;;;5083242;28;20559;-62
2023/03/19 04:55:38;;;;;;;9.27;4.65;;;13.30;76.90;;;;;;5077383;28;20037;-62
2023/03/19 04:58:09;;;;;;;10.88;4.97;;;13.30;76.90;;;;;;5063634;28;20035;-62
2023/03/19 05:00:36;;;;;;;9.30;4.63;;;13.30;76.90;;;;;;5073257;28;20040;-62
2023/03/19 05:03:02;;;;;;;10.93;4.70;;;13.20;76.90;;;;;;5090829;28;20058;-62
2023/03/19 05:05:30;;;;;;;9.48;5.35;;;13.20;76.90;;;;;;5078822;28;20035;-62
2023/03/19 05:07:56;;;;;;;8.85;4.80;;;13.20;77.00;;;;;;5075496;28;20036;-61
2023/03/19 05:10:23;;;;;;;8.90;5.07;;;13.30;77.10;;;;;;5080472;28;20044;-62
2023/03/19 05:12:49;;;;;;;9.10;5.70;;;13.20;77.00;;;;;;5078138;28;20012;-62
2023/03/19 05:15:16;;;;;;;9.10;6.13;;;13.30;77.10;;;;;;5082648;28;20043;-62
2023/03/19 05:17:54;;;;;;;8.82;5.45;;;13.30;77.10;;;;;;5079203;28;20027;-62
2023/03/19 05:20:22;;;;;;;9.75;5.57;;;13.20;77.00;;;;;;5079484;28;20039;-62
2023/03/19 05:22:54;;;;;;;11.30;6.30;;;13.30;77.20;;;;;;5074964;28;20040;-62
2023/03/19 05:25:29;;;;;;;11.02;6.50;;;13.30;77.20;;;;;;5075617;28;20032;-62
2023/03/19 05:27:55;;;;;;;10.18;5.80;;;13.20;77.20;;;;;;5078550;28;20063;-62
2023/03/19 05:30:23;;;;;;;9.88;5.88;;;13.20;77.20;;;;;;5089828;28;20021;-62
2023/03/19 05:33:02;;;;;;;10.23;6.47;;;13.30;77.30;;;;;;5064724;28;20413;-62
2023/03/19 05:35:36;;;;;;;10.55;6.38;;;13.20;77.30;;;;;;5077673;28;20039;-62
2023/03/19 05:38:04;;;;;;;10.60;6.50;;;13.20;77.30;;;;;;5094218;28;20031;-62
2023/03/19 05:40:31;;;;;;;10.35;6.72;;;13.20;77.40;;;;;;5093330;28;20066;-62
2023/03/19 05:43:00;;;;;;;12.20;7.55;;;13.20;77.40;;;;;;5094653;28;20020;-62
2023/03/19 05:45:28;;;;;;;12.80;7.80;;;13.20;77.40;;;;;;5089349;28;20038;-62
2023/03/19 05:47:57;;;;;;;12.63;8.23;;;13.30;77.50;;;;;;5093622;28;20402;-62
2023/03/19 05:50:24;;;;;;;11.60;7.93;;;13.20;77.40;;;;;;5079550;28;20020;-62
2023/03/19 05:53:10;;;;;;;13.70;8.95;;;13.30;77.50;;;;;;5093639;28;20145;-62
2023/03/19 05:55:39;;;;;;;13.27;8.95;;;13.20;77.40;;;;;;5089741;28;20119;-61
2023/03/19 05:58:08;;;;;;;13.85;8.80;;;13.20;77.40;;;;;;5094628;28;20021;-62
2023/03/19 06:00:34;;;;;;;13.43;8.90;;;13.20;77.40;;;;;;5093902;28;20154;-63
2023/03/19 06:03:00;;;;;;;14.40;9.82;;;13.30;77.40;;;;;;5089586;28;20024;-63
2023/03/19 06:05:29;;;;;;;12.85;9.35;;;13.30;77.40;;;;;;5090284;28;20031;-62
2023/03/19 06:08:01;;;;;;;14.05;9.52;;;13.30;77.40;;;;;;5098224;28;20013;-63
2023/03/19 06:10:37;;;;;;;13.55;9.00;;;13.30;77.40;;;;;;5093770;28;20456;-62
2023/03/19 06:13:08;;;;;;;14.48;9.45;;;13.30;77.40;;;;;;5092671;28;20030;-62
2023/03/19 06:15:39;;;;;;;14.35;10.38;;;13.30;77.40;;;;;;5097202;28;20020;-62
2023/03/19 06:18:05;;;;;;;12.77;9.05;;;13.30;77.40;;;;;;5094445;28;20479;-62
2023/03/19 06:20:31;;;;;;;13.05;8.95;;;13.30;77.40;;;;;;5093027;28;20462;-62
2023/03/19 06:22:57;;;;;;;15.07;9.82;;;13.30;77.40;;;;;;5092561;28;20048;-63
2023/03/19 06:25:22;;;;;;;18.15;10.27;;;13.30;77.40;;;;;;5093344;28;20101;-62
2023/03/19 06:27:49;;;;;;;15.60;10.65;;;13.30;77.30;;;;;;5084523;28;20024;-62
2023/03/19 06:30:25;;;;;;;17.02;11.93;;;13.30;77.30;;;;;;5093619;28;20016;-62
2023/03/19 06:32:52;;;;;;;16.52;11.45;;;13.30;77.20;;;;;;5093573;28;20024;-62
2023/03/19 06:35:18;;;;;;;15.30;10.70;;;13.30;77.20;;;;;;5093354;28;20016;-62
2023/03/19 06:37:47;;;;;;;18.88;11.75;;;13.30;77.10;;;;;;5094894;28;20024;-62
2023/03/19 06:40:13;;;;;;;16.83;11.90;;;13.30;77.10;;;;;;5098750;28;20016;-62
2023/03/19 06:42:42;;;;;;;15.77;10.55;;;13.40;77.20;;;;;;5093377;28;20497;-62
2023/03/19 06:45:10;;;;;;;17.30;11.00;;;13.40;77.20;;;;;;5095780;28;20027;-63
2023/03/19 06:47:35;;;;;;;14.55;10.73;;;13.40;77.20;;;;;;5094095;28;20049;-62
2023/03/19 06:50:02;;;;;;;15.50;11.80;;;13.40;77.10;;;;;;5093205;28;20027;-62
2023/03/19 06:52:27;;;;;;;14.45;10.23;;;13.40;77.10;;;;;;5093386;28;20110;-62
2023/03/19 06:54:53;;;;;;;16.67;10.98;;;13.40;77.80;;;;;;5092560;28;20024;-62
2023/03/19 06:57:19;;;;;;;14.30;9.93;;;13.40;77.10;;;;;;5093462;28;20024;-62
2023/03/19 06:59:45;;;;;;;15.13;10.30;;;13.40;77.10;;;;;;5088615;28;20024;-62
2023/03/19 07:02:11;;;;;;;15.45;10.00;;;13.40;77.00;;;;;;5091915;28;20052;-63
2023/03/19 07:04:37;;;;;;;14.80;9.95;;;13.50;77.00;;;;;;5093503;28;20036;-63
2023/03/19 07:07:04;;;;;;;14.40;9.25;;;13.50;76.90;;;;;;5093747;28;20093;-63
2023/03/19 07:09:31;;;;;;;14.07;9.05;;;13.50;76.90;;;;;;5087358;28;20111;-62
2023/03/19 07:11:56;;;;;;;11.38;8.18;;;13.50;76.90;;;;;;5095637;28;20093;-63
2023/03/19 07:14:23;;;;;;;13.98;9.02;;;13.60;76.90;;;;;;5097222;28;20080;-63
2023/03/19 07:16:49;;;;;;;12.02;8.27;;;13.60;76.80;;;;;;5100830;28;20056;-62
2023/03/19 07:19:14;;;;;;;14.13;9.52;;;13.60;76.80;;;;;;5097201;28;20089;-63
2023/03/19 07:21:40;;;;;;;14.00;8.93;;;13.60;76.70;;;;;;5097342;28;20453;-62
2023/03/19 07:24:07;;;;;;;14.15;9.65;;;13.60;76.60;;;;;;5096687;28;20078;-62
2023/03/19 07:26:32;;;;;;;14.57;9.63;;;13.60;76.60;;;;;;5109008;28;20024;-62
2023/03/19 07:28:58;;;;;;;13.63;9.65;;;13.60;76.60;;;;;;5097116;28;20024;-63
2023/03/19 07:31:24;;;;;;;13.00;8.48;;;13.60;76.50;;;;;;5097363;28;20042;-63
2023/03/19 07:33:50;;;;;;;12.32;7.95;;;13.70;76.40;;;;;;5097865;28;20031;-62
2023/03/19 07:36:16;;;;;;;10.95;7.10;;;13.80;76.20;;;;;;5102826;28;20030;-63
2023/03/19 07:38:41;;;;;;;10.38;6.22;;;13.90;76.00;;;;;;5093473;28;20056;-62
2023/03/19 07:41:07;;;;;;;10.88;6.78;;;14.00;75.80;;;;;;5097998;28;20032;-62
2023/03/19 07:43:33;;;;;;;9.63;5.97;;;14.00;75.70;;;;;;5096964;28;20028;-62
2023/03/19 07:45:59;;;;;;;10.25;6.25;;;14.00;75.60;;;;;;5098122;28;20032;-63
2023/03/19 07:48:25;;;;;;;10.75;6.68;;;14.00;75.70;;;;;;5105237;27;20035;-64
2023/03/19 07:50:52;;;;;;;10.70;7.47;;;14.00;75.60;;;;;;5095741;28;20024;-63
2023/03/19 07:53:18;;;;;;;12.77;7.43;;;14.00;75.50;;;;;;5100245;28;20024;-63
2023/03/19 07:55:43;;;;;;;11.48;7.03;;;14.00;75.50;;;;;;5096322;28;20040;-63
2023/03/19 07:58:09;;;;;;;11.35;7.68;;;14.00;75.40;;;;;;5101849;28;20035;-64
2023/03/19 08:00:35;;;;;;;9.68;6.93;;;14.00;75.30;;;;;;5093992;28;20028;-63
2023/03/19 08:03:01;;;;;;;11.55;7.80;;;14.00;75.30;;;;;;5093318;28;20050;-63
2023/03/19 08:05:27;;;;;;;9.63;6.90;;;14.10;75.10;;;;;;5096789;28;20032;-64
2023/03/19 08:07:53;;;;;;;12.07;7.30;;;14.10;75.10;;;;;;5088154;28;20111;-64
2023/03/19 08:10:18;;;;;;;11.02;6.47;;;14.10;75.00;;;;;;5095506;28;20114;-63
2023/03/19 08:12:44;;;;;;;9.90;6.50;;;14.10;74.90;;;;;;5103486;28;20108;-64
2023/03/19 08:15:10;;;;;;;10.35;6.35;;;14.10;74.70;;;;;;5096224;28;20031;-63
2023/03/19 08:17:37;;;;;;;9.95;6.32;;;14.10;74.60;;;;;;5100730;28;20465;-64
2023/03/19 08:20:12;;;;;;;11.27;7.25;;;14.20;74.50;;;;;;5095004;28;20034;-64
2023/03/19 08:22:38;;;;;;;9.55;6.40;;;14.20;74.30;;;;;;5098109;28;20170;-63
2023/03/19 08:25:05;;;;;;;10.40;6.72;;;14.30;74.20;;;;;;5096558;28;20020;-63
2023/03/19 08:27:34;;;;;;;9.43;6.18;;;14.30;74.20;;;;;;5100967;28;20039;-64
2023/03/19 08:30:01;;;;;;;10.18;6.63;;;14.30;74.00;;;;;;5096590;28;20058;-62
2023/03/19 08:32:28;;;;;;;10.10;6.85;;;14.30;73.80;;;;;;5086848;28;20031;-64
2023/03/19 08:34:53;;;;;;;11.27;6.88;;;14.40;73.80;;;;;;5088642;28;20035;-62
2023/03/19 08:37:19;;;;;;;11.50;6.57;;;14.50;73.80;;;;;;5102734;28;20344;-63
2023/03/19 08:39:45;;;;;;;10.18;6.60;;;14.50;73.70;;;;;;5093352;28;20302;-63
2023/03/19 08:42:11;;;;;;;10.45;6.30;;;14.50;73.50;;;;;;5098792;28;20042;-62
2023/03/19 08:44:36;;;;;;;12.85;8.00;;;14.60;73.50;;;;;;5093112;28;20028;-62
2023/03/19 08:47:02;;;;;;;12.60;7.43;;;14.60;73.30;;;;;;5085222;28;20024;-62
2023/03/19 08:49:28;;;;;;;10.73;6.80;;;14.70;73.90;;;;;;5083172;28;20096;-62
2023/03/19 08:51:54;;;;;;;11.35;7.28;;;14.70;73.30;;;;;;5079518;28;20453;-63
2023/03/19 08:54:19;;;;;;;12.75;6.93;;;14.60;73.20;;;;;;5076133;28;20120;-63
2023/03/19 08:56:45;;;;;;;12.43;7.30;;;14.70;73.30;;;;;;5081685;28;20028;-63
2023/03/19 08:59:11;;;;;;;11.48;6.97;;;14.70;73.20;;;;;;5078874;28;20036;-63
2023/03/19 09:01:37;;;;;;;9.02;5.93;;;14.80;73.00;;;;;;5078032;28;20036;-64
2023/03/19 09:04:03;;;;;;;12.05;7.03;;;14.90;72.70;;;;;;5079288;28;20035;-63
2023/03/19 09:06:29;;;;;;;11.75;6.90;;;15.00;72.50;;;;;;5079840;28;20043;-63
2023/03/19 09:08:55;;;;;;;12.88;6.95;;;15.00;72.40;;;;;;5083586;28;20496;-63
2023/03/19 09:11:22;;;;;;;11.30;7.63;;;15.10;72.30;;;;;;5083625;28;20448;-63
2023/03/19 09:13:48;;;;;;;9.05;6.22;;;15.20;72.30;;;;;;5082264;28;20418;-63
2023/03/19 09:16:14;;;;;;;12.60;7.53;;;15.30;72.00;;;;;;5086890;28;20076;-63
2023/03/19 09:18:40;;;;;;;12.15;8.50;;;15.40;71.70;;;;;;5080767;28;20028;-63
2023/03/19 09:21:06;;;;;;;14.77;10.48;;;15.30;71.60;;;;;;5075555;28;20024;-63
2023/03/19 09:23:32;;;;;;;15.40;11.52;;;15.20;71.60;;;;;;5084219;28;20047;-62
2023/03/19 09:25:58;;;;;;;17.45;12.30;;;15.20;71.80;;;;;;5079252;28;20414;-62
2023/03/19 09:28:24;;;;;;;15.27;11.38;;;15.10;71.80;;;;;;5077967;28;20044;-63
2023/03/19 09:30:50;;;;;;;17.50;12.70;;;15.00;71.80;;;;;;5083316;28;20056;-62
2023/03/19 09:33:19;;;;;;;16.45;12.32;;;15.00;71.80;;;;;;5078242;28;20086;-62
2023/03/19 09:35:51;;;;;;;16.55;12.52;;;15.20;71.60;;;;;;5079852;28;20342;-62
2023/03/19 09:38:18;;;;;;;15.65;11.90;;;15.50;71.10;;;;;;5079164;28;20044;-63
2023/03/19 09:40:47;;;;;;;15.32;11.52;;;16.00;70.30;;;;;;5076289;28;20112;-63
2023/03/19 09:43:58;;;;;;;15.48;11.98;;;16.30;69.50;;;;;;5080202;28;20024;-63
2023/03/19 09:46:35;;;;;;;14.70;10.65;;;16.70;68.40;;;;;;5077303;28;20111;-63
2023/03/19 09:49:19;;;;;;;14.13;10.88;;;16.80;68.10;;;;;;5083805;28;20463;-63
2023/03/19 09:51:47;;;;;;;16.63;10.55;;;16.90;67.80;;;;;;5081247;28;20059;-62
2023/03/19 09:54:26;;;;;;;13.45;10.23;;;17.00;67.40;;;;;;5094008;28;20093;-62
2023/03/19 09:56:53;;;;;;;14.98;12.02;;;17.10;67.20;;;;;;5095201;28;20027;-63
2023/03/19 09:59:24;;;;;;;14.60;11.50;;;17.10;67.40;;;;;;5095259;28;20035;-66
2023/03/19 10:02:02;;;;;;;14.23;10.00;;;17.30;66.40;;;;;;5077438;28;20082;-62
2023/03/19 10:04:37;;;;;;;15.45;10.57;;;17.40;66.10;;;;;;5094430;28;20036;-63
2023/03/19 10:07:31;;;;;;;13.52;10.32;;;17.60;65.50;;;;;;5096214;28;20372;-61
2023/03/19 10:10:09;;;;;;;12.77;9.65;;;17.80;65.00;;;;;;5090541;28;20135;-61
2023/03/19 10:12:40;;;;;;;13.82;9.38;;;18.00;64.50;;;;;;5082009;28;20457;-61
2023/03/19 10:15:31;;;;;;;13.50;9.20;;;18.10;64.10;;;;;;5094588;28;20032;-61
2023/03/19 10:18:10;;;;;;;12.40;9.23;;;18.30;63.40;;;;;;5094920;28;20469;-61
2023/03/19 10:20:45;;;;;;;12.50;9.07;;;18.40;63.00;;;;;;5093654;28;20472;-61
2023/03/19 10:23:32;;;;;;;13.15;9.43;;;18.40;62.70;;;;;;5094877;28;20420;-62
2023/03/19 10:26:01;;;;;;;12.57;9.15;;;18.30;62.90;;;;;;5094728;28;20352;-61
2023/03/19 10:28:28;;;;;;;12.48;9.52;;;18.40;62.90;;;;;;5094596;28;20020;-61
2023/03/19 10:30:54;;;;;;;11.82;9.77;;;18.60;62.40;;;;;;5093530;28;20063;-61
2023/03/19 10:33:22;;;;;;;13.68;10.48;;;18.50;62.80;;;;;;5094704;28;20070;-61
2023/03/19 10:35:56;;;;;;;14.18;10.65;;;18.40;62.30;;;;;;5094353;28;20044;-61
2023/03/19 10:38:24;;;;;;;12.63;10.52;;;18.30;62.20;;;;;;5094584;28;20354;-62
2023/03/19 10:41:08;;;;;;;12.18;9.88;;;18.30;62.10;;;;;;5088857;28;20035;-61
2023/03/19 10:43:35;;;;;;;13.57;10.90;;;18.20;62.00;;;;;;5094551;28;20024;-62
2023/03/19 10:46:01;;;;;;;15.77;11.02;;;18.30;62.00;;;;;;5093799;28;20016;-62
2023/03/19 10:48:29;;;;;;;15.85;10.75;;;18.40;61.70;;;;;;5093434;28;20036;-62
2023/03/19 10:51:01;;;;;;;15.38;10.70;;;18.50;61.40;;;;;;5092818;28;20028;-62
2023/03/19 10:53:34;;;;;;;13.32;10.38;;;18.70;60.90;;;;;;5094347;28;20161;-62
2023/03/19 10:56:18;;;;;;;13.10;10.70;;;18.80;60.60;;;;;;5094383;28;20052;-61
2023/03/19 10:59:01;;;;;;;15.48;11.18;;;18.90;60.40;;;;;;5094176;28;20035;-62
2023/03/19 11:01:35;;;;;;;14.77;11.77;;;18.90;60.00;;;;;;5083121;28;20032;-62
2023/03/19 11:04:22;;;;;;;15.32;11.70;;;18.80;60.10;;;;;;5079756;28;20027;-62
2023/03/19 11:07:10;;;;;;;13.35;10.30;;;18.80;60.20;;;;;;5089740;28;20361;-62
2023/03/19 11:09:40;;;;;;;15.00;10.48;;;18.80;60.00;;;;;;5078643;28;20067;-61
2023/03/19 11:12:28;;;;;;;15.13;11.23;;;18.90;59.80;;;;;;5091636;28;20048;-62
2023/03/19 11:14:56;;;;;;;13.65;10.50;;;18.90;59.60;;;;;;5093814;28;20036;-62
2023/03/19 11:17:44;;;;;;;13.10;11.07;;;18.90;59.40;;;;;;5092328;28;20071;-62
2023/03/19 11:20:10;;;;;;;13.60;10.70;;;19.00;59.20;;;;;;5076739;28;20064;-62
2023/03/19 11:22:38;;;;;;;15.20;11.88;;;19.10;59.20;;;;;;5091084;28;20036;-62
2023/03/19 11:25:26;;;;;;;14.15;11.38;;;19.10;58.90;;;;;;5094657;28;20061;-62
2023/03/19 11:28:11;;;;;;;13.07;10.80;;;19.00;59.10;;;;;;5090813;28;20405;-62
2023/03/19 11:30:59;;;;;;;15.57;10.52;;;19.10;59.10;;;;;;5086888;28;20024;-62
2023/03/19 11:33:46;;;;;;;16.10;10.68;;;19.10;59.00;;;;;;5094134;28;20024;-62
2023/03/19 11:36:19;;;;;;;14.05;11.25;;;19.10;59.10;;;;;;5093866;28;20036;-63
2023/03/19 11:39:12;;;;;;;15.90;12.05;;;19.00;59.30;;;;;;5092994;28;20032;-62
2023/03/19 11:41:52;;;;;;;14.38;11.77;;;18.90;59.40;;;;;;5080708;28;20055;-62
2023/03/19 11:44:22;;;;;;;13.73;11.18;;;18.80;59.40;;;;;;5092917;28;20115;-62
2023/03/19 11:47:08;;;;;;;14.65;11.07;;;18.70;59.60;;;;;;5079736;28;20024;-62
2023/03/19 11:49:35;;;;;;;15.55;11.10;;;18.60;59.70;;;;;;5093018;28;20031;-62
2023/03/19 11:52:09;;;;;;;15.25;11.07;;;18.50;60.00;;;;;;5093582;28;20028;-62
2023/03/19 11:54:46;;;;;;;15.00;11.68;;;18.40;60.00;;;;;;5092172;28;20048;-62
2023/03/19 11:57:46;;;;;;;15.02;10.95;;;18.30;60.20;;;;;;5089757;28;20048;-62
2023/03/19 12:01:04;;;;;;;16.83;11.23;;;18.30;60.40;;;;;;5083246;28;20078;-62
2023/03/19 12:03:39;;;;;;;19.98;11.52;;;18.20;60.70;;;;;;5070531;28;20051;-62
2023/03/19 12:06:10;;;;;;;16.45;12.95;;;18.00;61.10;;;;;;5095288;28;20187;-62
2023/03/19 12:09:02;;;;;;;19.27;14.13;;;17.90;61.50;;;;;;5095291;28;20460;-62
2023/03/19 12:12:18;;;;;;;19.40;13.65;;;17.70;61.80;;;;;;5089204;28;20051;-61
2023/03/19 12:14:43;;;;;;;22.33;14.07;;;17.60;62.10;;;;;;5054462;28;20416;-62
2023/03/19 12:17:36;;;;;;;22.88;14.95;;;17.50;62.40;;;;;;5094436;28;20020;-60
2023/03/19 12:20:17;;;;;;;21.42;13.32;;;17.50;62.60;;;;;;5086267;28;20104;-61
2023/03/19 12:22:55;;;;;;;17.48;12.57;;;17.40;62.70;;;;;;5082214;28;20044;-60
2023/03/19 12:25:38;;;;;;;21.58;13.65;;;17.40;62.80;;;;;;5096522;28;20032;-61
2023/03/19 12:28:07;;;;;;;19.38;12.57;;;17.30;62.80;;;;;;5084998;28;20024;-61
2023/03/19 12:30:49;;;;;;;20.10;13.25;;;17.30;63.00;;;;;;5090242;28;20458;-60
2023/03/19 12:33:14;;;;;;;;;;;17.30;63.10;;;;;;5089320;28;20123;-60
2023/03/19 12:35:42;;;;;;;17.38;10.32;;;17.40;63.00;;;;;;5095576;28;20376;-61
2023/03/19 12:38:44;;;;;;;16.80;10.68;;;17.50;62.70;;;;;;5096146;28;20103;-61
2023/03/19 12:41:17;;;;;;;19.52;11.23;;;17.50;62.50;;;;;;5093570;28;20024;-61
2023/03/19 12:44:05;;;;;;;20.50;12.80;;;17.50;62.70;;;;;;5089052;28;20028;-60
2023/03/19 12:46:36;;;;;;;17.70;11.10;;;17.40;62.70;;;;;;5095488;28;20089;-61
2023/03/19 12:49:41;;;;;;;18.33;11.48;;;17.50;62.90;;;;;;5096296;28;20035;-61
2023/03/19 12:52:19;;;;;;;16.92;11.35;;;17.50;62.70;;;;;;5079494;28;20029;-61
2023/03/19 12:54:54;;;;;;;15.60;10.40;;;17.50;62.80;;;;;;5094480;28;20421;-61
2023/03/19 12:57:28;;;;;;;17.27;11.45;;;17.40;62.70;;;;;;5096170;28;20028;-61